createdAt,value
2019-01-10T00:00:22.850Z,7.40
2019-01-10T00:02:51.561Z,18.87
2019-01-10T00:05:20.429Z,14.30
2019-01-10T00:07:48.934Z,14.87
2019-01-10T00:10:18.905Z,9.27
2019-01-10T00:12:47.714Z,9.33
2019-01-10T00:15:20.666Z,8.60
2019-01-10T00:17:50.458Z,8.00
2019-01-10T00:20:19.073Z,9.10
2019-01-10T00:22:47.597Z,9.57
2019-01-10T00:25:16.211Z,13.37
2019-01-10T00:27:44.736Z,9.73
2019-01-10T00:30:18.588Z,10.50
2019-01-10T00:32:47.499Z,12.80
2019-01-10T00:35:16.280Z,10.07
2019-01-10T00:37:44.976Z,15.37
2019-01-10T00:40:15.940Z,10.03
2019-01-10T00:42:49.560Z,9.47
2019-01-10T00:45:17.037Z,11.43
2019-01-10T00:47:46.086Z,11.33
2019-01-10T00:50:23.061Z,10.77
2019-01-10T00:52:51.936Z,9.53
2019-01-10T00:55:20.477Z,7.03
2019-01-10T00:57:49.182Z,14.37
2019-01-10T01:00:25.757Z,11.03
2019-01-10T01:02:54.369Z,8.90
2019-01-10T01:05:23.275Z,10.20
2019-01-10T01:07:52.273Z,9.17
2019-01-10T01:10:26.257Z,9.50
2019-01-10T01:12:58.726Z,8.87
2019-01-10T01:15:25.465Z,9.63
2019-01-10T01:17:53.978Z,7.67
2019-01-10T01:20:25.544Z,7.33
2019-01-10T01:22:54.048Z,10.53
2019-01-10T01:25:22.690Z,13.13
2019-01-10T01:27:51.194Z,14.97
2019-01-10T01:30:21.639Z,10.00
2019-01-10T01:32:50.191Z,14.50
2019-01-10T01:35:18.700Z,10.23
2019-01-10T01:37:47.636Z,9.90
2019-01-10T01:40:20.431Z,7.37
2019-01-10T01:42:49.087Z,9.10
2019-01-10T01:45:19.838Z,13.83
2019-01-10T01:47:48.510Z,14.97
2019-01-10T01:50:22.004Z,10.63
2019-01-10T01:52:50.624Z,8.27
2019-01-10T01:55:19.400Z,19.37
2019-01-10T01:57:48.100Z,9.40
2019-01-10T02:00:19.285Z,11.67
2019-01-10T02:02:47.948Z,5.80
2019-01-10T02:05:16.837Z,12.07
2019-01-10T02:07:45.551Z,12.03
2019-01-10T02:10:22.624Z,15.93
2019-01-10T02:12:51.093Z,12.30
2019-01-10T02:15:19.820Z,10.03
2019-01-10T02:17:49.437Z,11.93
2019-01-10T02:20:18.598Z,11.00
2019-01-10T02:22:47.183Z,14.53
2019-01-10T02:25:17.105Z,15.33
2019-01-10T02:27:45.818Z,11.07
2019-01-10T02:30:20.389Z,12.77
2019-01-10T02:32:49.159Z,14.53
2019-01-10T02:35:17.933Z,11.97
2019-01-10T02:37:46.542Z,13.83
2019-01-10T02:40:16.213Z,12.60
2019-01-10T02:42:44.790Z,14.43
2019-01-10T02:45:15.962Z,12.77
2019-01-10T02:47:44.743Z,8.20
2019-01-10T02:50:16.366Z,10.57
2019-01-10T02:52:45.056Z,15.07
2019-01-10T02:55:13.638Z,12.27
2019-01-10T02:57:42.180Z,13.65
2019-01-10T03:00:24.229Z,11.10
2019-01-10T03:02:52.943Z,15.13
2019-01-10T03:05:22.037Z,14.28
2019-01-10T03:07:50.616Z,19.97
2019-01-10T03:10:22.133Z,11.30
2019-01-10T03:12:50.710Z,14.30
2019-01-10T03:15:19.232Z,13.00
2019-01-10T03:17:47.812Z,13.97
2019-01-10T03:20:19.314Z,12.80
2019-01-10T03:22:47.846Z,10.63
2019-01-10T03:25:16.376Z,12.30
2019-01-10T03:27:45.089Z,14.80
2019-01-10T03:30:18.332Z,11.70
2019-01-10T03:32:47.479Z,19.20
2019-01-10T03:35:16.060Z,9.97
2019-01-10T03:37:44.533Z,17.40
2019-01-10T03:40:16.027Z,9.65
2019-01-10T03:42:44.658Z,14.47
2019-01-10T03:45:15.447Z,10.55
2019-01-10T03:47:46.885Z,13.40
2019-01-10T03:50:16.760Z,14.87
2019-01-10T03:52:45.650Z,8.30
2019-01-10T03:55:14.662Z,16.47
2019-01-10T03:57:43.412Z,12.98
2019-01-10T04:00:17.822Z,11.77
2019-01-10T04:02:46.611Z,9.43
2019-01-10T04:05:15.451Z,16.32
2019-01-10T04:07:44.001Z,14.80
2019-01-10T04:10:14.685Z,8.55
2019-01-10T04:12:43.153Z,11.40
2019-01-10T04:15:13.249Z,16.60
2019-01-10T04:17:41.778Z,11.77
2019-01-10T04:20:13.167Z,16.93
2019-01-10T04:22:41.775Z,14.63
2019-01-10T04:25:10.461Z,15.63
2019-01-10T04:27:38.931Z,10.48
2019-01-10T04:30:10.835Z,21.62
2019-01-10T04:32:39.300Z,16.73
2019-01-10T04:35:07.918Z,16.77
2019-01-10T04:37:36.504Z,17.77
2019-01-10T04:40:08.136Z,15.00
2019-01-10T04:42:39.577Z,19.23
2019-01-10T04:45:08.963Z,10.13
2019-01-10T04:47:37.438Z,16.45
2019-01-10T04:50:09.400Z,12.93
2019-01-10T04:52:37.874Z,12.63
2019-01-10T04:55:08.165Z,11.50
2019-01-10T04:57:36.698Z,9.00
2019-01-10T05:00:13.916Z,8.43
2019-01-10T05:02:42.388Z,12.23
2019-01-10T05:05:11.062Z,12.83
2019-01-10T05:07:39.497Z,11.33
2019-01-10T05:10:10.505Z,12.37
2019-01-10T05:12:39.042Z,15.55
2019-01-10T05:15:10.888Z,10.53
2019-01-10T05:17:39.433Z,11.10
2019-01-10T05:20:13.532Z,21.07
2019-01-10T05:22:41.979Z,12.60
2019-01-10T05:25:10.598Z,14.58
2019-01-10T05:27:39.034Z,13.93
2019-01-10T05:30:18.820Z,7.70
2019-01-10T05:32:47.338Z,20.93
2019-01-10T05:35:15.800Z,12.53
2019-01-10T05:37:44.344Z,9.83
2019-01-10T05:40:13.448Z,10.43
2019-01-10T05:42:42.005Z,15.50
2019-01-10T05:45:13.214Z,15.70
2019-01-10T05:47:43.137Z,14.07
2019-01-10T05:50:14.051Z,14.10
2019-01-10T05:52:42.698Z,10.67
2019-01-10T05:55:13.880Z,15.48
2019-01-10T05:57:42.412Z,16.13
2019-01-10T06:00:14.080Z,9.25
2019-01-10T06:02:42.609Z,12.93
2019-01-10T06:05:11.249Z,13.15
2019-01-10T06:07:39.692Z,11.97
2019-01-10T06:10:13.771Z,10.93
2019-01-10T06:12:42.211Z,11.67
2019-01-10T06:15:13.631Z,15.83
2019-01-10T06:17:42.147Z,13.60
2019-01-10T06:20:13.552Z,9.10
2019-01-10T06:22:41.999Z,12.75
2019-01-10T06:25:11.063Z,14.07
2019-01-10T06:27:39.575Z,13.90
2019-01-10T06:30:11.399Z,13.73
2019-01-10T06:32:39.916Z,17.70
2019-01-10T06:35:09.016Z,13.60
2019-01-10T06:37:37.449Z,15.00
2019-01-10T06:40:08.856Z,13.23
2019-01-10T06:42:37.368Z,13.00
2019-01-10T06:45:09.067Z,17.70
2019-01-10T06:47:37.784Z,13.43
2019-01-10T06:50:09.532Z,12.45
2019-01-10T06:52:37.992Z,13.33
2019-01-10T06:55:08.673Z,11.50
2019-01-10T06:57:37.151Z,13.10
2019-01-10T07:00:08.665Z,9.73
2019-01-10T07:02:37.191Z,15.53
2019-01-10T07:05:06.085Z,13.73
2019-01-10T07:07:34.560Z,15.50
2019-01-10T07:10:04.048Z,12.95
2019-01-10T07:12:32.498Z,9.07
2019-01-10T07:15:00.944Z,12.13
2019-01-10T07:17:29.407Z,9.00
2019-01-10T07:19:57.859Z,8.60
2019-01-10T07:22:26.336Z,13.07
2019-01-10T07:24:55.324Z,14.17
2019-01-10T07:27:23.794Z,12.63
2019-01-10T07:29:55.380Z,15.17
2019-01-10T07:32:24.099Z,16.37
2019-01-10T07:34:56.203Z,11.50
2019-01-10T07:37:24.643Z,17.63
2019-01-10T07:39:53.204Z,12.57
2019-01-10T07:42:21.647Z,10.10
2019-01-10T07:44:50.103Z,17.43
2019-01-10T07:47:18.551Z,17.97
2019-01-10T07:49:47.089Z,16.23
2019-01-10T07:52:15.605Z,14.07
2019-01-10T07:54:44.082Z,12.87
2019-01-10T08:00:00.328Z,13.20
2019-01-10T08:02:28.763Z,16.97
2019-01-10T08:04:57.244Z,15.83
2019-01-10T08:07:25.689Z,15.70
2019-01-10T08:09:54.464Z,17.03
2019-01-10T08:12:22.909Z,10.33
2019-01-10T08:14:51.376Z,10.47
2019-01-10T08:17:19.813Z,11.67
2019-01-10T08:19:48.301Z,16.83
2019-01-10T08:22:16.796Z,12.67
2019-01-10T08:24:45.263Z,16.33
2019-01-10T08:27:13.848Z,18.10
2019-01-10T08:29:42.334Z,14.20
2019-01-10T08:32:10.767Z,20.07
2019-01-10T08:34:39.237Z,18.67
2019-01-10T08:37:07.692Z,16.83
2019-01-10T08:39:36.148Z,15.00
2019-01-10T08:42:04.738Z,13.37
2019-01-10T08:44:33.737Z,11.70
2019-01-10T08:47:02.319Z,15.97
2019-01-10T08:49:30.853Z,14.33
2019-01-10T08:51:59.304Z,13.97
2019-01-10T08:54:27.747Z,14.87
2019-01-10T08:56:56.224Z,11.47
2019-01-10T08:59:24.673Z,16.30
2019-01-10T09:01:53.128Z,16.73
2019-01-10T09:04:21.656Z,14.63
2019-01-10T09:06:50.108Z,14.63
2019-01-10T09:09:18.720Z,13.63
2019-01-10T09:11:47.175Z,11.23
2019-01-10T09:14:15.607Z,14.77
2019-01-10T09:16:44.069Z,12.20
2019-01-10T09:19:12.575Z,15.13
2019-01-10T09:21:41.135Z,15.67
2019-01-10T09:24:09.572Z,14.27
2019-01-10T09:26:38.081Z,10.43
2019-01-10T09:29:06.621Z,12.67
2019-01-10T09:31:35.149Z,15.73
2019-01-10T09:34:03.588Z,18.70
2019-01-10T09:36:32.044Z,10.23
2019-01-10T09:39:00.475Z,16.53
2019-01-10T09:41:29.012Z,12.83
2019-01-10T09:43:57.644Z,17.33
2019-01-10T09:46:26.103Z,19.60
2019-01-10T09:48:54.603Z,9.07
2019-01-10T09:51:23.055Z,13.97
2019-01-10T09:53:51.501Z,15.03
2019-01-10T09:56:19.960Z,9.30
2019-01-10T09:58:48.397Z,12.93
2019-01-10T10:01:16.853Z,11.70
2019-01-10T10:03:45.339Z,12.13
2019-01-10T10:06:13.820Z,13.80
2019-01-10T10:08:42.268Z,16.63
2019-01-10T10:11:10.734Z,14.53
2019-01-10T10:13:39.469Z,10.07
2019-01-10T10:16:07.931Z,13.10
2019-01-10T10:18:36.377Z,13.23
2019-01-10T10:21:04.948Z,13.67
2019-01-10T10:23:33.409Z,10.87
2019-01-10T10:26:01.865Z,12.00
2019-01-10T10:28:30.299Z,10.83
2019-01-10T10:30:58.741Z,12.37
2019-01-10T10:33:27.200Z,12.87
2019-01-10T10:35:55.636Z,17.53
2019-01-10T10:38:24.493Z,20.63
2019-01-10T10:40:52.923Z,12.00
2019-01-10T10:43:21.379Z,9.43
2019-01-10T10:45:49.888Z,11.20
2019-01-10T10:48:18.353Z,12.70
2019-01-10T10:50:46.792Z,9.67
2019-01-10T10:53:15.257Z,10.57
2019-01-10T10:55:43.712Z,14.40
2019-01-10T10:58:12.172Z,10.57
2019-01-10T11:00:40.766Z,8.17
2019-01-10T11:03:09.219Z,9.43
2019-01-10T11:05:37.775Z,13.37
2019-01-10T11:08:06.324Z,8.97
2019-01-10T11:10:34.845Z,8.67
2019-01-10T11:13:03.307Z,11.97
2019-01-10T11:15:31.889Z,12.47
2019-01-10T11:18:00.342Z,12.10
2019-01-10T11:20:28.792Z,10.60
2019-01-10T11:22:57.231Z,8.77
2019-01-10T11:25:26.400Z,13.57
2019-01-10T11:27:54.916Z,14.87
2019-01-10T11:30:23.416Z,11.87
2019-01-10T11:32:53.706Z,6.97
2019-01-10T11:35:22.120Z,11.10
2019-01-10T11:37:50.560Z,9.60
2019-01-10T11:40:20.647Z,12.10
2019-01-10T11:42:49.525Z,9.43
2019-01-10T11:45:20.728Z,12.87
2019-01-10T11:47:49.506Z,7.23
2019-01-10T11:50:18.312Z,10.07
2019-01-10T11:52:46.925Z,8.33
2019-01-10T11:55:15.612Z,13.70
2019-01-10T11:57:44.814Z,10.60
2019-01-10T12:00:22.542Z,8.97
2019-01-10T12:02:51.072Z,12.97
2019-01-10T12:05:19.533Z,11.03
2019-01-10T12:07:47.968Z,9.80
2019-01-10T12:10:16.509Z,13.97
2019-01-10T12:12:45.441Z,16.03
2019-01-10T12:15:15.148Z,11.83
2019-01-10T12:17:43.763Z,14.47
2019-01-10T12:20:15.133Z,10.80
2019-01-10T12:22:43.909Z,12.93
2019-01-10T12:25:14.961Z,10.57
2019-01-10T12:27:43.649Z,10.63
2019-01-10T12:30:15.391Z,15.50
2019-01-10T12:32:43.972Z,9.40
2019-01-10T12:35:12.547Z,12.60
2019-01-10T12:37:40.998Z,10.47
2019-01-10T12:40:12.066Z,10.80
2019-01-10T12:42:40.696Z,11.60
2019-01-10T12:45:12.067Z,11.47
2019-01-10T12:47:40.665Z,10.87
2019-01-10T12:50:17.772Z,17.37
2019-01-10T12:52:46.709Z,7.50
2019-01-10T12:55:15.284Z,8.30
2019-01-10T12:57:44.031Z,8.67
2019-01-10T13:00:18.604Z,17.80
2019-01-10T13:02:47.067Z,8.50
2019-01-10T13:05:15.645Z,11.23
2019-01-10T13:07:44.165Z,10.53
2019-01-10T13:10:15.336Z,7.50
2019-01-10T13:12:43.868Z,7.93
2019-01-10T13:15:14.944Z,10.53
2019-01-10T13:17:43.498Z,10.73
2019-01-10T13:20:12.865Z,10.47
2019-01-10T13:22:41.496Z,7.50
2019-01-10T13:25:12.741Z,6.73
2019-01-10T13:27:41.196Z,8.10
2019-01-10T13:30:13.043Z,8.17
2019-01-10T13:32:41.501Z,9.30
2019-01-10T13:35:10.313Z,11.10
2019-01-10T13:37:38.776Z,16.30
2019-01-10T13:40:09.651Z,10.77
2019-01-10T13:42:38.190Z,13.90
2019-01-10T13:45:09.317Z,10.77
2019-01-10T13:47:39.236Z,11.23
2019-01-10T13:50:16.671Z,6.20
2019-01-10T13:52:45.457Z,10.10
2019-01-10T13:55:16.616Z,5.33
2019-01-10T13:57:45.477Z,8.83
2019-01-10T14:00:17.176Z,8.80
2019-01-10T14:02:45.760Z,10.33
2019-01-10T14:05:14.301Z,10.97
2019-01-10T14:07:42.873Z,12.70
2019-01-10T14:10:14.544Z,10.57
2019-01-10T14:12:43.120Z,11.63
2019-01-10T14:15:15.583Z,10.10
2019-01-10T14:17:44.121Z,5.87
2019-01-10T14:20:13.000Z,12.53
2019-01-10T14:22:41.445Z,11.63
2019-01-10T14:25:10.069Z,10.20
2019-01-10T14:27:38.639Z,7.37
2019-01-10T14:30:13.116Z,8.80
2019-01-10T14:32:41.554Z,8.03
2019-01-10T14:35:10.148Z,10.33
2019-01-10T14:37:38.584Z,11.57
2019-01-10T14:40:09.294Z,13.47
2019-01-10T14:42:37.720Z,6.27
2019-01-10T14:45:09.488Z,9.90
2019-01-10T14:47:38.056Z,6.27
2019-01-10T14:50:08.951Z,9.33
2019-01-10T14:52:37.627Z,9.63
2019-01-10T14:55:10.467Z,7.00
2019-01-10T14:57:39.149Z,13.70
2019-01-10T15:00:13.656Z,5.73
2019-01-10T15:02:42.343Z,12.33
2019-01-10T15:05:10.948Z,11.17
2019-01-10T15:07:39.379Z,9.43
2019-01-10T15:10:09.628Z,9.47
2019-01-10T15:12:38.137Z,17.23
2019-01-10T15:15:12.740Z,10.57
2019-01-10T15:17:41.677Z,9.77
2019-01-10T15:20:13.388Z,7.80
2019-01-10T15:22:41.834Z,7.43
2019-01-10T15:25:10.592Z,8.20
2019-01-10T15:27:39.302Z,9.73
2019-01-10T15:30:11.068Z,9.70
2019-01-10T15:32:40.150Z,8.90
2019-01-10T15:35:09.049Z,10.03
2019-01-10T15:37:37.929Z,26.50
2019-01-10T15:40:09.671Z,18.13
2019-01-10T15:42:38.189Z,11.17
2019-01-10T15:45:07.992Z,10.70
2019-01-10T15:47:36.693Z,12.37
2019-01-10T15:50:08.292Z,11.77
2019-01-10T15:52:38.223Z,10.47
2019-01-10T15:55:09.541Z,10.10
2019-01-10T15:57:41.580Z,19.50
2019-01-10T16:00:13.388Z,21.00
2019-01-10T16:02:42.329Z,29.97
2019-01-10T16:05:11.100Z,12.43
2019-01-10T16:07:39.678Z,19.83
2019-01-10T16:10:11.307Z,16.97
2019-01-10T16:12:39.997Z,21.47
2019-01-10T16:15:17.598Z,15.50
2019-01-10T16:17:47.112Z,13.50
2019-01-10T16:20:16.181Z,15.87
2019-01-10T16:22:44.778Z,17.43
2019-01-10T16:25:16.309Z,14.73
2019-01-10T16:27:45.190Z,16.83
2019-01-10T16:30:19.407Z,14.03
2019-01-10T16:32:48.014Z,13.47
2019-01-10T16:35:16.516Z,16.10
2019-01-10T16:37:45.169Z,10.57
2019-01-10T16:40:16.104Z,12.03
2019-01-10T16:42:44.747Z,12.03
2019-01-10T16:45:16.640Z,15.10
2019-01-10T16:47:45.250Z,15.83
2019-01-10T16:50:15.170Z,13.67
2019-01-10T16:52:43.709Z,13.17
2019-01-10T16:55:13.941Z,14.07
2019-01-10T16:57:42.625Z,11.20
2019-01-10T17:00:16.946Z,26.53
2019-01-10T17:02:45.489Z,18.57
2019-01-10T17:05:13.920Z,10.13
2019-01-10T17:07:42.463Z,17.07
2019-01-10T17:10:11.956Z,14.90
2019-01-10T17:12:40.492Z,13.33
2019-01-10T17:15:11.574Z,13.53
2019-01-10T17:17:40.139Z,10.40
2019-01-10T17:20:17.148Z,13.20
2019-01-10T17:22:46.270Z,21.97
2019-01-10T17:25:15.643Z,14.20
2019-01-10T17:27:44.683Z,14.30
2019-01-10T17:30:21.856Z,14.83
2019-01-10T17:32:51.127Z,13.07
2019-01-10T17:35:22.689Z,17.73
2019-01-10T17:37:51.191Z,15.47
2019-01-10T17:40:21.595Z,11.37
2019-01-10T17:42:50.390Z,13.07
2019-01-10T17:45:21.878Z,24.07
2019-01-10T17:47:51.735Z,11.50
2019-01-10T17:50:21.266Z,18.23
2019-01-10T17:52:49.928Z,15.53
2019-01-10T17:55:18.571Z,13.97
2019-01-10T17:57:47.106Z,18.77
2019-01-10T18:00:18.417Z,17.20
2019-01-10T18:02:47.006Z,17.57
2019-01-10T18:05:15.905Z,17.50
2019-01-10T18:07:44.333Z,13.67
2019-01-10T18:10:15.806Z,13.77
2019-01-10T18:12:44.237Z,11.93
2019-01-10T18:15:15.498Z,18.13
2019-01-10T18:17:50.101Z,15.27
2019-01-10T18:20:17.236Z,16.83
2019-01-10T18:22:45.801Z,16.73
2019-01-10T18:25:15.468Z,18.60
2019-01-10T18:27:43.910Z,16.83
2019-01-10T18:30:15.456Z,16.07
2019-01-10T18:32:44.084Z,14.53
2019-01-10T18:35:13.413Z,22.00
2019-01-10T18:37:41.943Z,23.27
2019-01-10T18:40:13.065Z,15.10
2019-01-10T18:42:41.592Z,14.50
2019-01-10T18:45:13.271Z,17.07
2019-01-10T18:47:42.056Z,55.27
2019-01-10T18:50:13.850Z,35.50
2019-01-10T18:52:42.377Z,30.73
2019-01-10T18:55:10.884Z,27.53
2019-01-10T18:57:39.340Z,28.93
2019-01-10T19:00:13.596Z,30.23
2019-01-10T19:02:42.124Z,65.90
2019-01-10T19:05:11.048Z,49.30
2019-01-10T19:15:00.233Z,29.23
2019-01-10T19:17:28.881Z,18.73
2019-01-10T19:19:57.321Z,22.43
2019-01-10T19:22:25.804Z,29.07
2019-01-10T19:24:54.248Z,18.70
2019-01-10T19:27:22.692Z,21.43
2019-01-10T19:29:51.148Z,16.50
2019-01-10T19:32:19.591Z,23.73
2019-01-10T19:34:48.049Z,19.90
2019-01-10T19:37:16.484Z,25.60
2019-01-10T19:39:44.949Z,22.43
2019-01-10T19:42:13.523Z,18.93
2019-01-10T19:44:42.615Z,18.00
2019-01-10T19:47:11.055Z,23.93
2019-01-10T19:49:39.727Z,21.87
2019-01-10T19:52:08.248Z,19.17
2019-01-10T19:54:36.702Z,17.10
2019-01-10T19:57:05.206Z,13.37
2019-01-10T19:59:35.309Z,14.03
2019-01-10T20:02:03.845Z,19.07
2019-01-10T20:04:32.304Z,13.93
2019-01-10T20:07:00.744Z,14.67
2019-01-10T20:09:30.075Z,18.13
2019-01-10T20:11:58.707Z,16.73
2019-01-10T20:14:28.528Z,16.73
2019-01-10T20:16:56.983Z,16.50
2019-01-10T20:19:25.462Z,22.43
2019-01-10T20:21:54.312Z,20.40
2019-01-10T20:24:22.767Z,18.40
2019-01-10T20:26:52.280Z,21.30
2019-01-10T20:29:22.217Z,20.97
2019-01-10T20:31:50.977Z,17.50
2019-01-10T20:34:19.443Z,19.77
2019-01-10T20:36:47.883Z,23.17
2019-01-10T20:39:16.371Z,22.30
2019-01-10T20:41:44.804Z,18.90
2019-01-10T20:44:13.248Z,19.40
2019-01-10T20:46:41.845Z,21.00
2019-01-10T20:49:10.360Z,28.57
2019-01-10T20:51:38.924Z,22.97
2019-01-10T20:54:07.430Z,22.90
2019-01-10T20:56:35.951Z,23.40
2019-01-10T20:59:05.325Z,20.20
2019-01-10T21:01:33.785Z,23.70
2019-01-10T21:04:02.233Z,24.63
2019-01-10T21:06:30.784Z,21.20
2019-01-10T21:08:59.232Z,26.10
2019-01-10T21:11:27.687Z,19.13
2019-01-10T21:13:56.127Z,20.63
2019-01-10T21:16:24.587Z,22.03
2019-01-10T21:18:53.281Z,20.53
2019-01-10T21:21:21.812Z,23.20
2019-01-10T21:23:50.329Z,23.10
2019-01-10T21:26:18.785Z,19.13
2019-01-10T21:28:47.565Z,16.37
2019-01-10T21:31:16.098Z,26.30
2019-01-10T21:33:44.536Z,19.77
2019-01-10T21:36:13.015Z,19.47
2019-01-10T21:38:41.486Z,23.20
2019-01-10T21:41:10.282Z,23.00
2019-01-10T21:43:38.732Z,18.00
2019-01-10T21:46:07.457Z,21.53
2019-01-10T21:48:35.964Z,17.73
2019-01-10T21:51:04.468Z,21.30
2019-01-10T21:53:33.305Z,20.43
2019-01-10T21:56:01.817Z,15.67
2019-01-10T21:58:30.848Z,17.93
2019-01-10T22:00:59.360Z,20.93
2019-01-10T22:03:27.829Z,21.33
2019-01-10T22:05:56.279Z,20.83
2019-01-10T22:08:24.832Z,22.13
2019-01-10T22:10:53.343Z,17.10
2019-01-10T22:13:21.806Z,24.77
2019-01-10T22:15:50.244Z,20.90
2019-01-10T22:18:18.699Z,19.23
2019-01-10T22:20:47.281Z,18.90
2019-01-10T22:23:15.738Z,24.87
2019-01-10T22:25:45.264Z,21.00
2019-01-10T22:28:13.905Z,18.20
2019-01-10T22:30:44.064Z,19.87
2019-01-10T22:33:12.589Z,21.83
2019-01-10T22:35:41.041Z,17.30
2019-01-10T22:38:09.505Z,18.83
2019-01-10T22:40:37.969Z,19.80
2019-01-10T22:43:06.413Z,18.47
2019-01-10T22:45:34.944Z,22.07
2019-01-10T22:48:03.413Z,15.03
2019-01-10T22:50:31.935Z,20.80
2019-01-10T22:53:00.403Z,22.57
2019-01-10T22:55:28.928Z,20.53
2019-01-10T22:57:57.427Z,14.17
2019-01-10T23:00:51.428Z,21.47
2019-01-10T23:03:20.143Z,15.10
2019-01-10T23:05:48.753Z,20.77
2019-01-10T23:08:17.195Z,17.10
2019-01-10T23:10:45.809Z,17.90
2019-01-10T23:13:14.357Z,18.50
2019-01-10T23:15:42.799Z,16.60
2019-01-10T23:18:11.380Z,16.50
2019-01-10T23:20:39.848Z,17.07
2019-01-10T23:23:12.890Z,16.13
2019-01-10T23:25:41.496Z,18.67
2019-01-10T23:28:10.889Z,20.20
2019-01-10T23:30:46.801Z,24.13
2019-01-10T23:33:15.888Z,18.70
2019-01-10T23:35:44.339Z,19.17
2019-01-10T23:38:12.777Z,17.50
2019-01-10T23:40:41.233Z,26.17
2019-01-10T23:43:09.749Z,17.03
2019-01-10T23:45:38.213Z,19.17
2019-01-10T23:48:06.716Z,22.83
2019-01-10T23:50:35.181Z,19.57
2019-01-10T23:53:03.623Z,19.90
2019-01-10T23:55:32.092Z,20.70
2019-01-10T23:58:00.536Z,21.17
